Farmington Hills, MI (48331)

12:24 AM EDT on August 05, 2015 (GMT -0400)
Fox Run Green | | Change Station
CLOSE
Current Station
Personal Weather Station
Location: West Bloomfield Township, MI
Elevation: 997 ft
Nearby Weather Stations

Elev 997 ft 42.56 °N, 83.39 °W | Updated 44 seconds ago

Clear
Clear
63.5 °F
Feels Like 63.5 °F
N
0.0
Wind Variable Wind from NW
Gusts 1.0 mph

Today
High -- | Low -- °F
--% Chance of Precip.
Yesterday
High -- | Low -- °F
Precip. -- in
6:29 AM 8:48 PM
Waning Gibbous, 71% visible
Pressure 29.98 in
Visibility 10.0 miles
Clouds Few 6000 ft
Dew Point 55 °F
Humidity 75%
Rainfall 0.00 in
Snow Depth Not available.
UV 0.0 out of 12
Pollen 7.20 out of 12
Air Quality Not available.
Flu Activity Not available.
METAR KPTK 050353Z 31007KT 10SM FEW060 19/12 A2999 RMK AO2 SLP152 LAST AUGMENTED OBS NXT 10Z T01890122

More Conditions Fewer Conditions

Pressure 29.98 in
Visibility 10.0 miles
Clouds Few 6000 ft
Dew Point 55 °F
Humidity 75%
Rainfall 0.00 in
Snow Depth Not available.
UV 0.0 out of 12
Pollen 7.20 out of 12
Air Quality Not available.
Flu Activity Not available.
METAR KPTK 050353Z 31007KT 10SM FEW060 19/12 A2999 RMK AO2 SLP152 LAST AUGMENTED OBS NXT 10Z T01890122

More Conditions Fewer Conditions

10-Day Weather Forecast

×

Almanac

Astronomy

Aug. 05, 2015 Rise Set
Actual Time
Civil Twilight
Nautical Twilight
Astronomical Twilight
Moon
Length of Visible Light
Length of Day
Tomorrow will be .
, % of the Moon is Illuminated

Today's Extremes

State Highs State Lows

Community

WunderPhotos

Upload Photos

1,844,093 photos uploaded!

WunderBlogs® & News

Nearby

Air Quality

  Air Quality AQ Index Pollutant
Not available.

Snow Depth

Station Depth Elevation

Earthquake Activity

City Distance Mag. Time & Date
Minimum magnitude displayed is 2.5.

Coastal Water Temperatures

Place Temperature

Stations

Nearby Weather Stations

Station Location Temp. Windchill Dew Point Humidity Wind Precip. Elev Updated Type